Time;durP1;ratioP1;P1;durP2;ratioP2;P2;SDS_P1;SDS_P2;PMS_P1;PMS_P2;Temp;Humidity;BMP_temperature;BMP_pressure;BME280_temperature;BME280_humidity;BME280_pressure;Samples;Min_cycle;Max_cycle;Signal;HPM_P1;HPM_P2
2023/08/13 00:00:37;;;;;;;2.38;1.05;;;23.00;69.00;;;;;;4980497;28;20076;-64
2023/08/13 00:03:03;;;;;;;1.02;0.85;;;23.10;69.00;;;;;;4983195;28;20041;-63
2023/08/13 00:05:28;;;;;;;2.30;1.25;;;23.10;69.20;;;;;;4982030;28;20494;-64
2023/08/13 00:07:54;;;;;;;1.08;0.93;;;23.10;69.20;;;;;;4980958;28;20049;-64
2023/08/13 00:10:20;;;;;;;1.70;1.10;;;23.10;69.10;;;;;;4982146;28;20046;-64
2023/08/13 00:12:47;;;;;;;2.53;1.20;;;23.10;69.00;;;;;;4982527;28;20030;-64
2023/08/13 00:15:12;;;;;;;2.38;1.25;;;23.00;68.90;;;;;;4982327;28;20491;-64
2023/08/13 00:17:38;;;;;;;1.95;1.10;;;23.10;68.90;;;;;;4980682;28;20089;-65
2023/08/13 00:20:05;;;;;;;1.23;1.10;;;23.10;69.20;;;;;;4981035;28;20034;-64
2023/08/13 00:22:31;;;;;;;2.22;0.90;;;23.10;68.90;;;;;;4979825;28;20031;-63
2023/08/13 00:24:56;;;;;;;1.35;1.17;;;23.10;68.80;;;;;;4981891;28;20554;-64
2023/08/13 00:27:22;;;;;;;2.67;1.42;;;23.10;69.10;;;;;;4980969;28;20115;-64
2023/08/13 00:29:47;;;;;;;1.80;1.30;;;23.00;69.00;;;;;;4980014;28;21012;-64
2023/08/13 00:32:13;;;;;;;1.65;1.55;;;23.10;69.10;;;;;;4980777;28;20037;-64
2023/08/13 00:34:38;;;;;;;1.60;1.40;;;23.10;69.10;;;;;;4979986;28;20069;-64
2023/08/13 00:37:04;;;;;;;1.15;0.93;;;23.10;69.10;;;;;;4980869;28;20072;-64
2023/08/13 00:39:29;;;;;;;1.30;1.10;;;23.10;69.50;;;;;;4981817;28;20072;-64
2023/08/13 00:41:55;;;;;;;1.70;1.00;;;23.10;68.90;;;;;;4983439;28;20323;-64
2023/08/13 00:44:21;;;;;;;2.00;1.42;;;23.10;69.00;;;;;;4984504;28;20475;-64
2023/08/13 00:46:46;;;;;;;2.80;1.13;;;23.10;69.10;;;;;;4983391;28;20110;-63
2023/08/13 00:49:14;;;;;;;2.40;1.23;;;23.10;69.50;;;;;;4984313;28;20041;-63
2023/08/13 00:51:39;;;;;;;1.92;1.30;;;23.10;69.20;;;;;;4983090;28;20121;-64
2023/08/13 00:54:08;;;;;;;1.63;1.40;;;23.00;69.20;;;;;;4984447;28;20102;-64
2023/08/13 00:56:35;;;;;;;1.85;1.45;;;23.00;69.40;;;;;;4983070;28;20037;-64
2023/08/13 00:59:01;;;;;;;2.08;1.88;;;23.00;69.40;;;;;;4975860;28;20577;-63
2023/08/13 01:01:26;;;;;;;1.67;1.40;;;23.00;69.20;;;;;;4984260;28;20038;-64
2023/08/13 01:03:52;;;;;;;3.15;1.25;;;23.00;69.40;;;;;;4982848;28;20122;-64
2023/08/13 01:09:13;;;;;;;1.95;1.17;;;23.00;68.80;;;;;;4968851;28;20504;-64
2023/08/13 01:12:02;;;;;;;1.45;1.20;;;23.00;69.20;;;;;;4961738;28;20516;-65
2023/08/13 01:14:44;;;;;;;2.28;1.25;;;23.00;69.40;;;;;;4953435;28;20496;-64
2023/08/13 01:17:11;;;;;;;2.05;1.27;;;23.00;69.50;;;;;;4973334;28;20396;-62
2023/08/13 01:19:37;;;;;;;2.63;1.60;;;23.00;69.40;;;;;;4955936;28;20310;-65
2023/08/13 01:22:02;;;;;;;1.88;1.23;;;23.00;69.40;;;;;;4956384;28;20134;-65
2023/08/13 01:24:28;;;;;;;2.45;1.42;;;23.00;69.20;;;;;;4961106;28;20365;-65
2023/08/13 01:27:31;;;;;;;2.22;1.48;;;23.00;69.30;;;;;;4959304;28;20039;-65
2023/08/13 01:30:42;;;;;;;2.28;1.10;;;23.00;69.20;;;;;;4950885;28;20043;-65
2023/08/13 01:33:12;;;;;;;3.55;1.20;;;23.00;69.00;;;;;;4929981;28;20035;-65
2023/08/13 01:35:38;;;;;;;1.52;1.05;;;23.00;69.30;;;;;;4955816;28;20039;-65
2023/08/13 01:38:05;;;;;;;1.20;0.98;;;23.00;69.10;;;;;;4960712;28;20027;-64
2023/08/13 01:40:31;;;;;;;1.73;1.15;;;23.00;69.00;;;;;;4958413;28;20029;-64
2023/08/13 01:42:56;;;;;;;1.65;1.00;;;23.00;69.20;;;;;;4961778;28;20027;-62
2023/08/13 01:45:22;;;;;;;1.33;1.13;;;23.00;69.20;;;;;;4959689;28;20042;-65
2023/08/13 01:47:48;;;;;;;1.77;1.20;;;23.00;69.20;;;;;;4958021;28;20039;-65
2023/08/13 01:50:14;;;;;;;1.70;1.40;;;23.00;69.20;;;;;;4960344;28;20599;-64
2023/08/13 01:52:39;;;;;;;1.20;1.10;;;23.00;69.10;;;;;;4957457;28;20135;-65
2023/08/13 01:55:05;;;;;;;2.28;1.50;;;23.00;69.30;;;;;;4961641;28;20058;-64
2023/08/13 01:57:31;;;;;;;3.35;1.10;;;23.00;69.20;;;;;;4960825;28;20038;-63
2023/08/13 01:59:57;;;;;;;1.17;1.08;;;23.00;69.20;;;;;;4961833;28;20134;-65
2023/08/13 02:02:23;;;;;;;1.88;1.30;;;23.00;69.10;;;;;;4963082;28;20482;-64
2023/08/13 02:04:48;;;;;;;1.30;1.20;;;23.00;69.00;;;;;;4962561;28;20031;-64
2023/08/13 02:07:14;;;;;;;1.20;1.10;;;23.00;69.10;;;;;;4962043;28;20118;-64
2023/08/13 02:09:40;;;;;;;1.70;1.20;;;23.00;69.00;;;;;;4943514;28;20543;-65
2023/08/13 02:12:06;;;;;;;2.92;1.10;;;23.00;69.30;;;;;;4965534;28;20057;-64
2023/08/13 02:14:31;;;;;;;1.88;1.50;;;23.00;69.40;;;;;;4965257;28;20606;-63
2023/08/13 02:16:59;;;;;;;1.50;1.30;;;23.00;69.30;;;;;;4964800;28;20615;-65
2023/08/13 02:19:24;;;;;;;1.33;1.23;;;23.00;69.20;;;;;;4964315;28;20054;-65
2023/08/13 02:21:50;;;;;;;1.70;1.40;;;23.00;69.20;;;;;;4964520;28;20058;-65
2023/08/13 02:24:15;;;;;;;1.48;1.10;;;23.00;69.10;;;;;;4965744;28;20035;-65
2023/08/13 02:26:41;;;;;;;2.67;1.40;;;23.00;69.10;;;;;;4964767;28;20050;-65
2023/08/13 02:29:06;;;;;;;1.88;1.50;;;23.00;69.00;;;;;;4966699;28;20230;-64
2023/08/13 02:31:32;;;;;;;1.88;1.33;;;23.00;68.90;;;;;;4965207;28;20046;-63
2023/08/13 02:33:57;;;;;;;2.20;1.10;;;23.00;69.00;;;;;;4965891;28;20057;-65
2023/08/13 02:36:23;;;;;;;2.83;1.30;;;23.00;68.90;;;;;;4967252;28;20152;-64
2023/08/13 02:38:48;;;;;;;2.33;1.10;;;23.00;69.00;;;;;;4965279;28;20256;-64
2023/08/13 02:41:14;;;;;;;1.42;1.00;;;23.00;69.00;;;;;;4965334;28;20062;-64
2023/08/13 02:43:54;;;;;;;1.08;0.98;;;23.00;69.00;;;;;;4967789;28;20122;-65
2023/08/13 02:46:20;;;;;;;1.83;1.40;;;23.00;69.20;;;;;;4961246;28;20046;-64
2023/08/13 02:48:46;;;;;;;1.83;1.33;;;22.90;69.10;;;;;;4963643;28;20420;-65
2023/08/13 02:51:12;;;;;;;1.10;1.00;;;23.00;69.20;;;;;;4954385;28;20035;-65
2023/08/13 02:53:38;;;;;;;2.75;1.63;;;22.90;69.10;;;;;;4962998;28;20038;-65
2023/08/13 02:56:04;;;;;;;2.22;1.25;;;23.00;69.10;;;;;;4962794;28;20031;-64
2023/08/13 02:58:29;;;;;;;1.38;1.00;;;23.00;69.20;;;;;;4961864;28;20070;-64
2023/08/13 03:00:55;;;;;;;1.77;1.10;;;23.00;69.00;;;;;;4958730;28;20587;-65
2023/08/13 03:03:20;;;;;;;1.27;1.10;;;23.00;69.00;;;;;;4959939;28;20035;-65
2023/08/13 03:05:46;;;;;;;1.52;1.30;;;23.00;69.00;;;;;;4961027;28;20027;-65
2023/08/13 03:08:11;;;;;;;1.75;1.25;;;23.00;69.10;;;;;;4961736;28;20377;-64
2023/08/13 03:10:37;;;;;;;1.60;1.25;;;23.00;69.10;;;;;;4960954;28;20034;-65
2023/08/13 03:13:02;;;;;;;2.17;1.40;;;23.00;68.90;;;;;;4965516;28;20031;-65
2023/08/13 03:15:28;;;;;;;2.05;1.20;;;23.00;69.00;;;;;;4964705;28;20035;-65
2023/08/13 03:17:54;;;;;;;2.00;1.40;;;23.00;68.90;;;;;;4960465;28;20042;-64
2023/08/13 03:20:19;;;;;;;2.17;1.40;;;23.00;69.70;;;;;;4965933;28;20409;-65
2023/08/13 03:22:45;;;;;;;1.92;1.50;;;23.00;68.90;;;;;;4959593;28;20054;-65
2023/08/13 03:25:11;;;;;;;3.70;1.73;;;23.00;69.00;;;;;;4966017;28;20057;-64
2023/08/13 03:27:37;;;;;;;2.50;1.60;;;23.00;69.00;;;;;;4963561;28;20027;-64
2023/08/13 03:30:03;;;;;;;2.33;1.40;;;23.00;69.10;;;;;;4962601;28;20031;-64
2023/08/13 03:32:28;;;;;;;3.35;1.45;;;23.00;69.30;;;;;;4965009;28;20039;-64
2023/08/13 03:34:54;;;;;;;2.13;1.42;;;22.90;69.10;;;;;;4960940;28;20031;-64
2023/08/13 03:37:19;;;;;;;1.98;1.42;;;23.00;69.10;;;;;;4965639;28;20121;-64
2023/08/13 03:39:45;;;;;;;4.28;1.48;;;23.00;69.20;;;;;;4963534;28;20107;-64
2023/08/13 03:42:10;;;;;;;2.28;1.48;;;22.90;69.00;;;;;;4961314;28;20156;-64
2023/08/13 03:44:36;;;;;;;2.42;1.83;;;22.90;69.10;;;;;;4964763;28;20082;-64
2023/08/13 03:47:01;;;;;;;2.00;1.30;;;23.00;69.10;;;;;;4962344;28;20082;-65
2023/08/13 03:49:27;;;;;;;1.77;1.60;;;22.90;69.10;;;;;;4962949;28;20062;-63
2023/08/13 03:51:52;;;;;;;2.00;1.50;;;22.90;69.00;;;;;;4952274;28;20097;-63
2023/08/13 03:54:18;;;;;;;2.83;1.40;;;22.90;69.10;;;;;;4962894;28;20039;-64
2023/08/13 03:56:43;;;;;;;1.63;1.33;;;22.90;69.10;;;;;;4961645;28;20053;-63
2023/08/13 03:59:09;;;;;;;2.15;1.48;;;22.90;69.20;;;;;;4961908;28;20038;-63
2023/08/13 04:01:34;;;;;;;2.45;1.58;;;22.90;69.20;;;;;;4961977;28;20385;-63
2023/08/13 04:04:00;;;;;;;2.22;1.52;;;23.00;69.30;;;;;;4960450;28;20027;-63
2023/08/13 04:06:26;;;;;;;2.45;1.50;;;22.90;69.10;;;;;;4960643;28;20034;-63
2023/08/13 04:08:51;;;;;;;1.88;1.63;;;22.90;69.10;;;;;;4955663;28;20553;-63
2023/08/13 04:11:18;;;;;;;3.30;1.65;;;22.90;69.10;;;;;;4954866;28;20054;-62
2023/08/13 04:13:43;;;;;;;3.20;1.75;;;22.90;69.20;;;;;;4957320;28;20466;-63
2023/08/13 04:16:09;;;;;;;2.95;1.85;;;22.90;69.20;;;;;;4958786;28;20037;-63
2023/08/13 04:18:34;;;;;;;1.70;1.50;;;22.90;69.30;;;;;;4961969;28;20041;-62
2023/08/13 04:21:00;;;;;;;2.50;1.40;;;22.90;69.20;;;;;;4958784;28;20053;-63
2023/08/13 04:23:25;;;;;;;1.70;1.60;;;22.90;69.20;;;;;;4964854;28;20100;-63
2023/08/13 04:25:51;;;;;;;1.92;1.67;;;22.90;69.30;;;;;;4960979;28;20051;-63
2023/08/13 04:28:17;;;;;;;2.28;2.05;;;22.90;69.20;;;;;;4961923;28;20133;-63
2023/08/13 04:30:42;;;;;;;2.58;1.85;;;22.90;69.20;;;;;;4959714;28;20039;-63
2023/08/13 04:33:08;;;;;;;1.88;1.60;;;22.90;69.20;;;;;;4958146;28;20035;-65
2023/08/13 04:35:33;;;;;;;1.73;1.40;;;22.90;69.10;;;;;;4957302;28;20031;-62
2023/08/13 04:37:59;;;;;;;2.85;1.70;;;23.00;69.10;;;;;;4961611;28;20050;-63
2023/08/13 04:40:24;;;;;;;3.40;1.88;;;22.90;69.10;;;;;;4958073;28;20208;-63
2023/08/13 04:42:51;;;;;;;1.73;1.60;;;22.90;69.20;;;;;;4954943;28;20553;-62
2023/08/13 04:45:17;;;;;;;1.80;1.60;;;22.90;68.80;;;;;;4959913;28;20051;-62
2023/08/13 04:47:43;;;;;;;2.42;1.77;;;22.90;69.10;;;;;;4960614;28;20144;-62
2023/08/13 04:50:09;;;;;;;2.83;1.60;;;22.90;69.00;;;;;;4953258;28;20492;-62
2023/08/13 04:52:34;;;;;;;2.03;1.60;;;22.90;69.50;;;;;;4957759;28;20031;-62
2023/08/13 04:55:01;;;;;;;2.47;2.05;;;22.90;69.70;;;;;;4959614;28;20034;-62
2023/08/13 04:57:26;;;;;;;3.28;1.98;;;22.90;69.70;;;;;;4961148;28;20030;-62
2023/08/13 04:59:52;;;;;;;3.20;1.95;;;22.90;69.50;;;;;;4960273;28;20396;-62
2023/08/13 05:02:17;;;;;;;2.05;1.80;;;22.90;69.50;;;;;;4960328;28;20138;-62
2023/08/13 05:04:43;;;;;;;2.45;1.60;;;22.90;69.70;;;;;;4958531;28;20042;-63
2023/08/13 05:07:08;;;;;;;2.17;1.58;;;22.90;69.50;;;;;;4962367;28;20456;-63
2023/08/13 05:09:34;;;;;;;2.03;1.73;;;22.90;69.50;;;;;;4960510;28;20590;-63
2023/08/13 05:12:00;;;;;;;1.73;1.63;;;23.00;69.90;;;;;;4960545;28;20031;-62
2023/08/13 05:14:26;;;;;;;2.30;2.10;;;23.00;69.40;;;;;;4958213;28;20038;-63
2023/08/13 05:16:53;;;;;;;2.00;1.80;;;23.00;69.80;;;;;;4955026;28;20126;-63
2023/08/13 05:19:19;;;;;;;2.25;2.05;;;22.90;69.50;;;;;;4960200;28;20035;-63
2023/08/13 05:21:44;;;;;;;3.28;2.00;;;22.90;69.30;;;;;;4958571;28;20042;-62
2023/08/13 05:24:10;;;;;;;2.40;1.65;;;23.00;69.10;;;;;;4962959;28;20111;-63
2023/08/13 05:26:35;;;;;;;2.50;1.90;;;23.00;69.10;;;;;;4963987;28;20034;-63
2023/08/13 05:29:01;;;;;;;3.55;1.63;;;23.00;69.10;;;;;;4964080;28;20047;-64
2023/08/13 05:31:26;;;;;;;2.13;1.63;;;23.00;69.10;;;;;;4960211;28;20404;-63
2023/08/13 05:33:53;;;;;;;1.67;1.58;;;23.00;69.10;;;;;;4956593;28;20039;-62
2023/08/13 05:36:19;;;;;;;2.17;1.50;;;23.00;69.00;;;;;;4956222;28;20054;-63
2023/08/13 05:38:45;;;;;;;2.35;1.42;;;23.00;69.20;;;;;;4957512;28;20035;-63
2023/08/13 05:41:10;;;;;;;2.10;1.88;;;23.00;68.90;;;;;;4957409;28;20059;-63
2023/08/13 05:43:36;;;;;;;1.50;1.40;;;23.00;68.90;;;;;;4966951;28;20341;-62
2023/08/13 05:46:01;;;;;;;2.25;1.65;;;23.00;69.30;;;;;;4957525;28;20117;-62
2023/08/13 05:48:27;;;;;;;1.90;1.65;;;23.00;69.60;;;;;;4961921;28;20050;-63
2023/08/13 05:50:52;;;;;;;1.50;1.40;;;23.00;68.80;;;;;;4947625;28;20091;-62
2023/08/13 05:53:18;;;;;;;1.90;1.45;;;23.00;69.00;;;;;;4958351;28;20035;-62
2023/08/13 05:55:44;;;;;;;2.05;1.85;;;23.00;68.60;;;;;;4962463;28;20031;-62
2023/08/13 05:58:10;;;;;;;1.85;1.65;;;23.00;68.80;;;;;;4959622;28;20513;-62
2023/08/13 06:00:37;;;;;;;2.28;2.03;;;23.00;68.60;;;;;;4958849;28;20043;-62
2023/08/13 06:03:03;;;;;;;2.97;1.70;;;23.00;68.50;;;;;;4962477;28;20031;-63
2023/08/13 06:05:28;;;;;;;2.60;1.60;;;23.00;68.40;;;;;;4961478;28;20330;-62
2023/08/13 06:07:54;;;;;;;2.17;1.98;;;23.00;68.40;;;;;;4963172;28;20389;-62
2023/08/13 06:10:19;;;;;;;4.15;1.65;;;23.10;68.40;;;;;;4958525;28;20039;-62
2023/08/13 06:12:45;;;;;;;1.50;1.40;;;23.10;68.50;;;;;;4960329;28;20035;-63
2023/08/13 06:15:11;;;;;;;2.75;1.63;;;23.00;68.40;;;;;;4964696;28;20641;-62
2023/08/13 06:17:36;;;;;;;1.98;1.65;;;23.00;68.40;;;;;;4961290;28;20440;-62
2023/08/13 06:20:03;;;;;;;1.65;1.52;;;23.00;68.50;;;;;;4959984;28;20407;-63
2023/08/13 06:22:28;;;;;;;2.45;1.75;;;23.00;68.50;;;;;;4956590;28;20054;-64
2023/08/13 06:24:54;;;;;;;1.70;1.50;;;23.00;68.60;;;;;;4957438;28;20035;-63
2023/08/13 06:27:21;;;;;;;1.75;1.63;;;23.00;68.50;;;;;;4956396;28;20038;-63
2023/08/13 06:29:46;;;;;;;2.58;1.65;;;23.00;68.60;;;;;;4954961;28;20600;-62
2023/08/13 06:32:12;;;;;;;1.40;1.30;;;23.10;68.50;;;;;;4961194;28;20031;-63
2023/08/13 06:34:37;;;;;;;2.38;1.63;;;23.00;68.40;;;;;;4960752;28;20039;-63
2023/08/13 06:37:03;;;;;;;1.98;1.52;;;23.00;68.40;;;;;;4959034;28;20050;-62
2023/08/13 06:39:29;;;;;;;2.22;1.30;;;23.00;68.50;;;;;;4960924;28;20038;-63
2023/08/13 06:41:56;;;;;;;1.70;1.60;;;23.00;68.60;;;;;;4950786;28;20744;-64
2023/08/13 06:44:21;;;;;;;2.88;1.63;;;23.00;68.40;;;;;;4958764;28;20133;-63
2023/08/13 06:46:47;;;;;;;1.77;1.67;;;23.00;68.90;;;;;;4963073;28;20436;-62
2023/08/13 06:49:13;;;;;;;3.65;2.10;;;23.00;68.80;;;;;;4961662;28;20613;-62
2023/08/13 06:51:39;;;;;;;3.72;1.50;;;23.00;68.60;;;;;;4962020;28;20109;-63
2023/08/13 06:54:05;;;;;;;3.58;1.73;;;23.00;68.60;;;;;;4961349;28;20035;-63
2023/08/13 06:56:31;;;;;;;1.73;1.50;;;23.10;68.40;;;;;;4961259;28;20334;-62
2023/08/13 06:58:57;;;;;;;2.60;1.85;;;23.10;68.60;;;;;;4962156;28;20027;-63
2023/08/13 07:01:22;;;;;;;2.90;1.70;;;23.00;68.60;;;;;;4955848;28;20097;-63
2023/08/13 07:03:48;;;;;;;4.22;2.10;;;23.00;69.30;;;;;;4954457;28;20035;-63
2023/08/13 07:06:14;;;;;;;4.00;2.20;;;23.00;69.30;;;;;;4961432;28;20051;-63
2023/08/13 07:08:39;;;;;;;2.58;1.80;;;23.10;69.80;;;;;;4960803;28;20400;-63
2023/08/13 07:11:05;;;;;;;7.20;4.68;;;23.10;70.10;;;;;;4962263;28;20465;-64
2023/08/13 07:13:30;;;;;;;9.07;6.80;;;23.10;70.30;;;;;;4962600;28;20074;-64
2023/08/13 07:15:56;;;;;;;14.10;7.13;;;23.10;71.00;;;;;;4963488;28;20142;-63
2023/08/13 07:18:21;;;;;;;9.90;7.70;;;23.10;71.20;;;;;;4961950;28;20062;-63
2023/08/13 07:20:47;;;;;;;10.05;6.68;;;23.10;70.80;;;;;;4961844;28;20041;-63
2023/08/13 07:23:13;;;;;;;10.57;6.80;;;23.20;71.50;;;;;;4962699;28;20051;-63
2023/08/13 07:25:38;;;;;;;10.18;6.60;;;23.20;71.10;;;;;;4965325;28;20085;-63
2023/08/13 07:28:07;;;;;;;8.10;6.78;;;23.20;71.30;;;;;;4956643;28;20524;-63
2023/08/13 07:30:33;;;;;;;6.60;5.90;;;23.20;71.60;;;;;;4955105;28;20026;-63
2023/08/13 07:32:58;;;;;;;5.25;4.78;;;23.20;71.80;;;;;;4957830;28;20034;-63
2023/08/13 07:35:24;;;;;;;5.88;4.88;;;23.20;71.50;;;;;;4954191;28;20043;-63
2023/08/13 07:37:50;;;;;;;7.50;4.28;;;23.20;72.10;;;;;;4957741;28;20031;-63
2023/08/13 07:40:16;;;;;;;7.65;4.47;;;23.20;71.60;;;;;;4956715;28;20496;-63
2023/08/13 07:42:42;;;;;;;5.22;3.95;;;23.20;71.50;;;;;;4960824;28;20023;-63
2023/08/13 07:45:08;;;;;;;3.80;3.28;;;23.20;71.90;;;;;;4962543;28;20030;-63
2023/08/13 07:47:36;;;;;;;4.00;3.53;;;23.20;71.90;;;;;;4962281;28;20042;-63
2023/08/13 07:50:04;;;;;;;4.53;3.55;;;23.20;71.80;;;;;;4954681;28;20026;-63
2023/08/13 07:52:30;;;;;;;4.35;3.45;;;23.20;71.70;;;;;;4965684;28;20123;-63
2023/08/13 07:54:56;;;;;;;3.53;3.22;;;23.20;72.80;;;;;;4957190;28;20046;-63
2023/08/13 07:57:21;;;;;;;3.90;3.22;;;23.20;72.90;;;;;;4963694;28;20035;-63
2023/08/13 07:59:47;;;;;;;4.57;3.13;;;23.10;72.20;;;;;;4959101;28;20027;-63
2023/08/13 08:02:13;;;;;;;3.50;2.78;;;23.10;73.10;;;;;;4957788;28;20123;-62
2023/08/13 08:04:38;;;;;;;3.75;2.80;;;23.10;72.80;;;;;;4958430;28;20452;-64
2023/08/13 08:07:04;;;;;;;4.15;2.40;;;23.10;73.00;;;;;;4957416;28;20120;-63
2023/08/13 08:09:29;;;;;;;3.33;2.97;;;23.20;73.00;;;;;;4958473;28;20875;-63
2023/08/13 08:11:55;;;;;;;3.55;2.72;;;23.20;72.40;;;;;;4960196;28;20031;-63
2023/08/13 08:14:21;;;;;;;9.15;5.65;;;23.20;72.60;;;;;;4946985;28;20037;-63
2023/08/13 08:16:46;;;;;;;14.13;6.47;;;23.20;73.30;;;;;;4957162;28;20023;-63
2023/08/13 08:19:12;;;;;;;17.60;8.85;;;23.20;73.40;;;;;;4962317;28;20027;-64
2023/08/13 08:21:38;;;;;;;9.75;5.85;;;23.20;73.00;;;;;;4957494;28;20035;-63
2023/08/13 08:24:04;;;;;;;12.02;6.00;;;23.20;73.60;;;;;;4959595;28;20564;-62
2023/08/13 08:26:30;;;;;;;9.85;6.18;;;23.20;73.00;;;;;;4958146;28;20110;-62
2023/08/13 08:28:56;;;;;;;9.27;5.93;;;23.20;73.50;;;;;;4961929;28;20038;-63
2023/08/13 08:31:22;;;;;;;9.05;5.05;;;23.20;73.20;;;;;;4960870;28;20262;-63
2023/08/13 08:33:47;;;;;;;9.25;6.10;;;23.20;72.90;;;;;;4961012;28;20031;-63
2023/08/13 08:36:13;;;;;;;7.07;5.13;;;23.20;72.70;;;;;;4962045;28;20038;-62
2023/08/13 08:38:38;;;;;;;4.00;3.58;;;23.20;73.00;;;;;;4960316;28;20109;-63
2023/08/13 08:41:04;;;;;;;5.38;3.75;;;23.20;73.50;;;;;;4961778;28;20035;-63
2023/08/13 08:43:31;;;;;;;6.03;3.80;;;23.20;72.70;;;;;;4958263;28;20042;-63
2023/08/13 08:45:57;;;;;;;5.45;3.92;;;23.20;72.80;;;;;;4959805;28;20043;-63
2023/08/13 08:48:27;;;;;;;5.03;3.70;;;23.20;73.00;;;;;;4956957;28;20035;-62
2023/08/13 08:50:53;;;;;;;6.05;4.47;;;23.20;73.00;;;;;;4959720;28;20053;-63
2023/08/13 08:53:20;;;;;;;5.00;4.50;;;23.20;73.60;;;;;;4960059;28;20034;-62
2023/08/13 08:55:47;;;;;;;7.53;4.85;;;23.20;73.60;;;;;;4959275;28;20039;-63
2023/08/13 08:58:13;;;;;;;6.22;4.63;;;23.20;73.30;;;;;;4962210;28;20628;-63
2023/08/13 09:00:38;;;;;;;6.05;4.63;;;23.20;74.00;;;;;;4959863;28;20132;-63
2023/08/13 09:03:04;;;;;;;6.35;4.88;;;23.20;73.50;;;;;;4960650;28;20110;-63
2023/08/13 09:05:32;;;;;;;5.82;4.40;;;23.20;73.10;;;;;;4956961;28;20038;-63
2023/08/13 09:07:58;;;;;;;5.30;4.55;;;23.20;74.10;;;;;;4961091;28;20504;-63
2023/08/13 09:10:23;;;;;;;5.55;4.50;;;23.20;73.30;;;;;;4960223;28;20175;-63
2023/08/13 09:12:52;;;;;;;7.63;4.25;;;23.30;73.40;;;;;;4958138;28;20192;-63
2023/08/13 09:15:17;;;;;;;5.05;4.10;;;23.20;73.30;;;;;;4957676;28;20603;-63
2023/08/13 09:17:43;;;;;;;5.68;4.32;;;23.20;73.40;;;;;;4956042;28;20098;-64
2023/08/13 09:20:17;;;;;;;6.93;4.18;;;23.20;73.00;;;;;;4962024;28;20081;-63
2023/08/13 09:22:46;;;;;;;7.50;3.95;;;23.20;73.70;;;;;;4963336;28;20046;-63
2023/08/13 09:25:14;;;;;;;9.18;4.50;;;23.20;73.70;;;;;;4965212;28;20031;-62
2023/08/13 09:27:40;;;;;;;8.40;4.82;;;23.20;73.50;;;;;;4962367;28;20035;-63
2023/08/13 09:30:11;;;;;;;8.57;4.82;;;23.20;73.40;;;;;;4965730;28;20038;-63
2023/08/13 09:32:36;;;;;;;7.97;4.63;;;23.20;72.90;;;;;;4962667;28;20496;-63
2023/08/13 09:35:05;;;;;;;8.30;5.10;;;23.20;72.90;;;;;;4961509;28;20027;-63
2023/08/13 09:37:31;;;;;;;6.50;5.15;;;23.20;73.00;;;;;;4962347;28;20030;-63
2023/08/13 09:39:56;;;;;;;7.65;5.00;;;23.30;74.10;;;;;;4964507;28;20117;-63
2023/08/13 09:42:23;;;;;;;7.82;4.18;;;23.30;73.50;;;;;;4964240;28;20511;-63
2023/08/13 09:44:51;;;;;;;5.95;4.38;;;23.30;73.40;;;;;;4961455;28;20090;-63
2023/08/13 09:47:19;;;;;;;8.20;4.45;;;23.40;73.10;;;;;;4960629;28;20031;-63
2023/08/13 09:49:46;;;;;;;7.68;5.10;;;23.40;73.00;;;;;;4961064;28;20427;-63
2023/08/13 09:52:14;;;;;;;5.20;4.10;;;23.30;72.60;;;;;;4963953;28;20042;-63
2023/08/13 09:54:53;;;;;;;8.63;4.13;;;23.30;72.80;;;;;;4962742;28;20408;-63
2023/08/13 09:57:21;;;;;;;5.15;3.75;;;23.30;73.10;;;;;;4965012;28;20038;-63
2023/08/13 09:59:48;;;;;;;7.47;3.67;;;23.30;73.30;;;;;;4963872;28;20031;-63
2023/08/13 10:02:14;;;;;;;4.22;3.83;;;23.30;73.10;;;;;;4963453;28;20062;-63
2023/08/13 10:04:41;;;;;;;4.22;3.42;;;23.30;72.80;;;;;;4960251;28;20035;-63
2023/08/13 10:07:07;;;;;;;5.07;3.70;;;23.40;72.90;;;;;;4963639;28;20058;-63
2023/08/13 10:09:34;;;;;;;4.10;3.30;;;23.30;72.80;;;;;;4962625;28;20041;-63
2023/08/13 10:12:01;;;;;;;4.32;3.78;;;23.40;72.70;;;;;;4960900;28;20031;-63
2023/08/13 10:14:28;;;;;;;4.13;3.50;;;23.40;72.70;;;;;;4961251;28;20035;-63
2023/08/13 10:16:53;;;;;;;4.82;3.85;;;23.40;72.70;;;;;;4961604;28;20448;-63
2023/08/13 10:19:28;;;;;;;4.53;3.15;;;23.40;72.70;;;;;;4964459;28;20050;-64
2023/08/13 10:21:58;;;;;;;3.93;3.47;;;23.40;72.60;;;;;;4963128;28;20070;-63
2023/08/13 10:24:27;;;;;;;4.20;3.53;;;23.40;72.50;;;;;;4963466;28;20451;-64
2023/08/13 10:26:53;;;;;;;4.25;3.40;;;23.40;72.70;;;;;;4964588;28;20038;-63
2023/08/13 10:29:20;;;;;;;4.78;3.58;;;23.40;72.60;;;;;;4964883;28;20046;-63
2023/08/13 10:32:13;;;;;;;3.40;3.08;;;23.40;72.40;;;;;;4961138;28;20081;-63
2023/08/13 10:34:41;;;;;;;3.88;3.38;;;23.50;72.30;;;;;;4956293;28;20433;-63
2023/08/13 10:37:23;;;;;;;3.55;3.25;;;23.40;72.10;;;;;;4961347;28;20031;-63
2023/08/13 10:39:55;;;;;;;4.13;3.05;;;23.40;72.10;;;;;;4962877;28;20037;-63
2023/08/13 10:42:26;;;;;;;2.83;2.63;;;23.40;72.30;;;;;;4963503;28;20601;-63
2023/08/13 10:45:12;;;;;;;3.63;3.30;;;23.40;72.20;;;;;;4963193;28;20046;-63
2023/08/13 10:48:03;;;;;;;3.83;3.40;;;23.30;72.50;;;;;;4961882;28;20059;-63
2023/08/13 10:50:31;;;;;;;5.00;3.30;;;23.40;72.00;;;;;;4961257;28;20458;-63
2023/08/13 10:53:13;;;;;;;4.05;2.85;;;23.40;72.00;;;;;;4962870;28;20034;-63
2023/08/13 10:55:50;;;;;;;4.05;2.92;;;23.40;71.80;;;;;;4962059;28;20023;-63
2023/08/13 10:58:23;;;;;;;3.22;2.60;;;23.40;71.80;;;;;;4963266;28;20058;-63
2023/08/13 11:00:48;;;;;;;3.72;2.50;;;23.50;71.70;;;;;;4962851;28;20313;-63
2023/08/13 11:03:37;;;;;;;3.65;2.85;;;23.40;71.70;;;;;;4962834;28;20031;-64
2023/08/13 11:06:03;;;;;;;3.47;2.50;;;23.40;71.70;;;;;;4958409;28;20037;-63
2023/08/13 11:08:30;;;;;;;2.70;2.50;;;23.40;71.50;;;;;;4961361;28;20035;-63
2023/08/13 11:10:55;;;;;;;2.55;2.35;;;23.50;70.70;;;;;;4962147;28;20158;-63
2023/08/13 11:13:21;;;;;;;3.97;2.47;;;23.50;70.50;;;;;;4963092;28;20656;-63
2023/08/13 11:15:54;;;;;;;2.30;2.10;;;23.50;70.70;;;;;;4960895;28;20030;-63
2023/08/13 11:18:20;;;;;;;2.67;2.35;;;23.50;71.00;;;;;;4963479;28;20106;-63
2023/08/13 11:20:47;;;;;;;3.67;2.85;;;23.50;71.00;;;;;;4962339;28;20036;-64
2023/08/13 11:23:14;;;;;;;4.03;2.60;;;23.50;71.10;;;;;;4963802;28;20133;-63
2023/08/13 11:25:40;;;;;;;2.97;2.50;;;23.50;71.00;;;;;;4962019;28;20082;-63
2023/08/13 11:28:06;;;;;;;2.67;2.47;;;23.50;70.70;;;;;;4964031;28;20031;-63
2023/08/13 11:30:31;;;;;;;3.13;2.58;;;23.40;70.80;;;;;;4961815;28;20114;-63
2023/08/13 11:32:57;;;;;;;2.65;2.45;;;23.50;70.90;;;;;;4963470;28;20018;-63
2023/08/13 11:35:23;;;;;;;2.65;2.45;;;23.50;71.10;;;;;;4962471;28;20038;-63
2023/08/13 11:37:49;;;;;;;5.28;2.55;;;23.50;71.00;;;;;;4961534;28;20643;-63
2023/08/13 11:40:15;;;;;;;2.70;2.50;;;23.50;71.10;;;;;;4962248;28;20460;-63
2023/08/13 11:43:01;;;;;;;2.55;2.35;;;23.50;71.00;;;;;;4961738;28;20034;-62
2023/08/13 11:45:30;;;;;;;2.78;2.58;;;23.50;70.90;;;;;;4962195;28;20034;-63
2023/08/13 11:48:16;;;;;;;3.08;2.50;;;23.50;70.90;;;;;;4961778;28;20757;-63
2023/08/13 11:50:50;;;;;;;3.03;2.58;;;23.50;71.00;;;;;;4960950;28;20029;-63
2023/08/13 11:53:16;;;;;;;5.85;2.90;;;23.50;70.90;;;;;;4963197;28;20066;-63
2023/08/13 11:55:44;;;;;;;3.10;2.55;;;23.50;70.40;;;;;;4961328;28;20495;-63
2023/08/13 11:58:10;;;;;;;2.35;2.15;;;23.60;70.60;;;;;;4962877;28;20515;-63
2023/08/13 12:00:37;;;;;;;2.38;2.17;;;23.50;70.70;;;;;;4961590;28;20077;-63
2023/08/13 12:03:03;;;;;;;3.13;2.53;;;23.50;70.70;;;;;;4962842;28;20030;-63
2023/08/13 12:05:30;;;;;;;3.30;2.25;;;23.50;70.90;;;;;;4962110;28;20468;-62
2023/08/13 12:07:57;;;;;;;3.00;2.42;;;23.50;70.70;;;;;;4961567;28;20054;-63
2023/08/13 12:10:22;;;;;;;2.70;2.50;;;23.50;70.70;;;;;;4964867;28;20555;-63
2023/08/13 12:12:48;;;;;;;2.15;1.88;;;23.50;70.70;;;;;;4964525;28;20043;-63
2023/08/13 12:15:14;;;;;;;5.90;2.78;;;23.50;70.60;;;;;;4965340;28;20027;-62
2023/08/13 12:17:39;;;;;;;2.40;2.20;;;23.50;70.50;;;;;;4963818;28;20150;-62
2023/08/13 12:20:06;;;;;;;2.88;2.58;;;23.50;70.30;;;;;;4966395;28;20032;-63
2023/08/13 12:22:32;;;;;;;8.57;3.90;;;23.50;70.20;;;;;;4958940;28;20081;-62
2023/08/13 12:24:57;;;;;;;29.25;19.25;;;23.50;70.20;;;;;;4955741;28;20026;-61
2023/08/13 12:27:23;;;;;;;49.53;34.33;;;23.60;70.40;;;;;;4962034;28;20118;-63
2023/08/13 12:29:48;;;;;;;58.17;41.10;;;23.50;70.70;;;;;;4963868;28;20058;-63
2023/08/13 12:32:14;;;;;;;48.28;36.35;;;23.60;70.90;;;;;;4961260;28;20388;-62
2023/08/13 12:34:40;;;;;;;31.45;21.20;;;23.60;70.90;;;;;;4961175;28;20565;-63
2023/08/13 12:37:05;;;;;;;18.70;13.68;;;23.60;70.80;;;;;;4962041;28;20042;-62
2023/08/13 12:39:31;;;;;;;16.15;11.05;;;23.60;69.90;;;;;;4961507;28;20026;-62
2023/08/13 12:41:56;;;;;;;16.75;11.52;;;23.70;69.80;;;;;;4959864;28;20035;-62
2023/08/13 12:44:23;;;;;;;11.85;10.07;;;23.70;69.80;;;;;;4964677;28;20035;-63
2023/08/13 12:46:49;;;;;;;11.05;8.30;;;23.70;69.90;;;;;;4961205;28;20032;-63